LGAVLGAL

Guest
Details From LGAV - Athens Intl Airport Elefterios Venizel
To LGAL - Alexandroupolis Dimokritos
Flight Number -
Tags generated
Created
Modified
Stats Distance 200 nm / 370 km
Max Altitude 23,500 ft / 7,163 m
Waypoints 5
Social Downloads 2
Likes 0
Share VATSIM

Download

Looking for another format? Having issues loading an existing format? Contact us
Advertisement - Login to hide

Notes

Basic altitude profile: - Ascent Rate: 2500ft/min - Ascent Speed: 250kts - Cruise Altitude: 35000ft - Cruise Speed: 420kts - Descent Rate: 1500ft/min - Descent Speed: 250kts Options: - Use NATs: yes - Use PACOTS: yes - Use low airways: yes - Use high airways: yes

Route

LGAV LUPIS UG33 LMO G33 ALX LGAL

ID Type Via Altitude Latitude Longitude Leg Dist Tot Dist Heading (true) Name
O LGAV APT - 0 ft / 0 m 37.93636˚ 23.94447˚ - 0 nm - Athens Intl Airport Elefterios Venizel
LUPIS FIX - 23,500 ft / 7,163 m 39.21056˚ 24.95889˚ 90 nm 90 nm 32° / 32° -
LMO VOR UG33 (AWY-HI) 23,500 ft / 7,163 m 39.91954˚ 25.23719˚ 44 nm 134 nm 17° / 17° LIMNOS VOR-DME
ALX VOR G33 (AWY-LO) 7,500 ft / 2,286 m 40.85500˚ 25.95722˚ 65 nm 199 nm 30° / 31° ALEXANDROUPOLIS VOR-DME
O LGAL APT - 0 ft / 0 m 40.85587˚ 25.95626˚ 0 nm 199 nm 320° / 320° Alexandroupolis Dimokritos

Altitude Profile

Advertisement - Login to hide

Weather


0- 5 10 15 20 25 30 35+ Temperature / ° C

Clouds and Precipitation
Forecast for 2017-12-15 18:00 UTC. Updated an hour ago

Ground ~20,000 ft ~40,000 ft Winds

LGAV

Details ICAO LGAV (ATH)
Name Athens Intl Airport Elefterios Venizel
Region Greece
Timezone Europe/Athens (UTC+2.0)
Stats Elevation 308 ft / 94 m (AMSL)
Location 37.936357° 23.944470°
Runways 2
Magnetic Variation 4.484° E

METAR

LGAV 151350Z 21007KT CAVOK 17/07 Q1015 NOSIG

Decode

TAF

TAF TAF LGAV 151100Z 1512/1612 21010KT 9999 FEW025 BECMG 1606/1608 22020KT SCT020 SCT070

Decode

Departure Runways

ID Width Length Bearing (true) Bearing (mag) Surface Threshold Offset Overrun Length
03L 148 ft / 45 m 12,474 ft / 3,802 m 36.51° 32.03° Asphalt 984 ft / 300 m 393 ft / 120 m
03R 148 ft / 45 m 13,131 ft / 4,002 m 36.52° 32.04° Asphalt 984 ft / 300 m 393 ft / 120 m
21L 148 ft / 45 m 13,131 ft / 4,002 m 216.54° 212.06° Asphalt 984 ft / 300 m 393 ft / 120 m
21R 148 ft / 45 m 12,474 ft / 3,802 m 216.53° 212.05° Asphalt 984 ft / 300 m 393 ft / 120 m

LGAL

Details ICAO LGAL (AXD)
Name Alexandroupolis Dimokritos
Region Greece
Timezone Europe/Athens (UTC+2.0)
Stats Elevation 24 ft / 7 m (AMSL)
Location 40.855869° 25.956264°
Runways 1
Magnetic Variation 5.062° E

METAR

LGAL 151350Z 20006KT 9999 FEW025 16/10 Q1013

Decode

TAF

Not found

Destination Runways

ID Width Length Bearing (true) Bearing (mag) Surface Threshold Offset Overrun Length
07 148 ft / 45 m 8,403 ft / 2,561 m 72.93° 67.87° Asphalt 0 ft / 0 m 200 ft / 61 m
25 148 ft / 45 m 8,403 ft / 2,561 m 252.95° 247.89° Asphalt 0 ft / 0 m 200 ft / 61 m

Popular Alternatives